sensor_id;sensor_type;location;lat;lon;timestamp;P1;durP1;ratioP1;P2;durP2;ratioP2
68310;SDS011;55157;51.036;17.058;2023-04-06T00:01:38;85.20;;;41.35;;
68310;SDS011;55157;51.036;17.058;2023-04-06T00:04:04;92.22;;;45.35;;
68310;SDS011;55157;51.036;17.058;2023-04-06T00:06:29;92.95;;;45.88;;
68310;SDS011;55157;51.036;17.058;2023-04-06T00:08:55;93.38;;;45.80;;
68310;SDS011;55157;51.036;17.058;2023-04-06T00:11:22;107.95;;;48.38;;
68310;SDS011;55157;51.036;17.058;2023-04-06T00:13:47;93.65;;;46.17;;
68310;SDS011;55157;51.036;17.058;2023-04-06T00:16:12;97.28;;;47.97;;
68310;SDS011;55157;51.036;17.058;2023-04-06T00:18:37;102.13;;;49.58;;
68310;SDS011;55157;51.036;17.058;2023-04-06T00:21:03;98.80;;;48.17;;
68310;SDS011;55157;51.036;17.058;2023-04-06T00:23:28;113.47;;;53.15;;
68310;SDS011;55157;51.036;17.058;2023-04-06T00:25:54;106.30;;;50.10;;
68310;SDS011;55157;51.036;17.058;2023-04-06T00:28:20;119.95;;;58.53;;
68310;SDS011;55157;51.036;17.058;2023-04-06T00:30:46;108.50;;;54.25;;
68310;SDS011;55157;51.036;17.058;2023-04-06T00:33:11;125.28;;;57.80;;
68310;SDS011;55157;51.036;17.058;2023-04-06T00:35:36;126.68;;;60.13;;
68310;SDS011;55157;51.036;17.058;2023-04-06T00:38:02;119.45;;;52.92;;
68310;SDS011;55157;51.036;17.058;2023-04-06T00:40:27;128.55;;;61.22;;
68310;SDS011;55157;51.036;17.058;2023-04-06T00:42:52;125.65;;;57.83;;
68310;SDS011;55157;51.036;17.058;2023-04-06T00:45:19;125.63;;;59.33;;
68310;SDS011;55157;51.036;17.058;2023-04-06T00:47:44;136.93;;;64.07;;
68310;SDS011;55157;51.036;17.058;2023-04-06T00:50:10;124.70;;;58.58;;
68310;SDS011;55157;51.036;17.058;2023-04-06T00:52:35;132.60;;;59.58;;
68310;SDS011;55157;51.036;17.058;2023-04-06T00:55:00;125.75;;;58.53;;
68310;SDS011;55157;51.036;17.058;2023-04-06T00:57:25;122.55;;;57.35;;
68310;SDS011;55157;51.036;17.058;2023-04-06T00:59:51;111.82;;;55.28;;
68310;SDS011;55157;51.036;17.058;2023-04-06T01:02:18;106.75;;;53.35;;
68310;SDS011;55157;51.036;17.058;2023-04-06T01:04:43;97.75;;;49.05;;
68310;SDS011;55157;51.036;17.058;2023-04-06T01:07:08;87.35;;;44.58;;
68310;SDS011;55157;51.036;17.058;2023-04-06T01:09:34;90.43;;;46.60;;
68310;SDS011;55157;51.036;17.058;2023-04-06T01:11:59;110.95;;;52.47;;
68310;SDS011;55157;51.036;17.058;2023-04-06T01:14:24;123.53;;;51.42;;
68310;SDS011;55157;51.036;17.058;2023-04-06T01:16:50;119.55;;;50.50;;
68310;SDS011;55157;51.036;17.058;2023-04-06T01:19:17;107.13;;;51.25;;
68310;SDS011;55157;51.036;17.058;2023-04-06T01:21:42;110.70;;;53.00;;
68310;SDS011;55157;51.036;17.058;2023-04-06T01:24:09;114.80;;;56.72;;
68310;SDS011;55157;51.036;17.058;2023-04-06T01:26:35;111.28;;;55.67;;
68310;SDS011;55157;51.036;17.058;2023-04-06T01:29:00;112.00;;;56.85;;
68310;SDS011;55157;51.036;17.058;2023-04-06T01:31:25;124.25;;;57.05;;
68310;SDS011;55157;51.036;17.058;2023-04-06T01:33:51;106.70;;;52.70;;
68310;SDS011;55157;51.036;17.058;2023-04-06T01:36:16;119.75;;;55.35;;
68310;SDS011;55157;51.036;17.058;2023-04-06T01:38:41;108.22;;;51.25;;
68310;SDS011;55157;51.036;17.058;2023-04-06T01:41:08;131.30;;;59.60;;
68310;SDS011;55157;51.036;17.058;2023-04-06T01:43:33;143.02;;;69.28;;
68310;SDS011;55157;51.036;17.058;2023-04-06T01:45:59;120.32;;;58.20;;
68310;SDS011;55157;51.036;17.058;2023-04-06T01:48:25;131.07;;;62.78;;
68310;SDS011;55157;51.036;17.058;2023-04-06T01:50:50;119.45;;;59.80;;
68310;SDS011;55157;51.036;17.058;2023-04-06T01:53:16;126.68;;;62.25;;
68310;SDS011;55157;51.036;17.058;2023-04-06T01:55:41;128.88;;;62.17;;
68310;SDS011;55157;51.036;17.058;2023-04-06T01:58:08;134.25;;;61.72;;
68310;SDS011;55157;51.036;17.058;2023-04-06T02:00:33;124.07;;;58.40;;
68310;SDS011;55157;51.036;17.058;2023-04-06T02:02:59;130.75;;;57.83;;
68310;SDS011;55157;51.036;17.058;2023-04-06T02:05:24;130.07;;;60.55;;
68310;SDS011;55157;51.036;17.058;2023-04-06T02:07:50;121.15;;;61.92;;
68310;SDS011;55157;51.036;17.058;2023-04-06T02:10:15;119.15;;;60.17;;
68310;SDS011;55157;51.036;17.058;2023-04-06T02:12:40;109.40;;;54.08;;
68310;SDS011;55157;51.036;17.058;2023-04-06T02:15:07;119.53;;;56.85;;
68310;SDS011;55157;51.036;17.058;2023-04-06T02:17:33;96.63;;;53.95;;
68310;SDS011;55157;51.036;17.058;2023-04-06T02:19:58;109.10;;;51.50;;
68310;SDS011;55157;51.036;17.058;2023-04-06T02:22:23;106.82;;;53.67;;
68310;SDS011;55157;51.036;17.058;2023-04-06T02:24:49;101.28;;;50.38;;
68310;SDS011;55157;51.036;17.058;2023-04-06T02:27:14;96.07;;;51.15;;
68310;SDS011;55157;51.036;17.058;2023-04-06T02:29:39;100.07;;;50.55;;
68310;SDS011;55157;51.036;17.058;2023-04-06T02:32:06;108.72;;;53.72;;
68310;SDS011;55157;51.036;17.058;2023-04-06T02:34:31;103.57;;;53.10;;
68310;SDS011;55157;51.036;17.058;2023-04-06T02:36:57;105.85;;;54.05;;
68310;SDS011;55157;51.036;17.058;2023-04-06T02:39:22;103.53;;;49.03;;
68310;SDS011;55157;51.036;17.058;2023-04-06T02:41:47;94.80;;;47.05;;
68310;SDS011;55157;51.036;17.058;2023-04-06T02:44:12;96.78;;;48.95;;
68310;SDS011;55157;51.036;17.058;2023-04-06T02:46:38;91.47;;;45.00;;
68310;SDS011;55157;51.036;17.058;2023-04-06T02:49:04;87.30;;;44.33;;
68310;SDS011;55157;51.036;17.058;2023-04-06T02:51:30;102.07;;;49.97;;
68310;SDS011;55157;51.036;17.058;2023-04-06T02:53:55;114.53;;;54.80;;
68310;SDS011;55157;51.036;17.058;2023-04-06T02:56:20;103.20;;;53.45;;
68310;SDS011;55157;51.036;17.058;2023-04-06T02:58:46;108.72;;;55.35;;
68310;SDS011;55157;51.036;17.058;2023-04-06T03:01:11;107.30;;;55.13;;
68310;SDS011;55157;51.036;17.058;2023-04-06T03:03:36;113.22;;;53.40;;
68310;SDS011;55157;51.036;17.058;2023-04-06T03:06:04;116.68;;;58.60;;
68310;SDS011;55157;51.036;17.058;2023-04-06T03:08:29;113.22;;;57.28;;
68310;SDS011;55157;51.036;17.058;2023-04-06T03:10:54;108.72;;;56.42;;
68310;SDS011;55157;51.036;17.058;2023-04-06T03:13:20;112.53;;;58.15;;
68310;SDS011;55157;51.036;17.058;2023-04-06T03:15:45;101.80;;;55.15;;
68310;SDS011;55157;51.036;17.058;2023-04-06T03:18:10;106.80;;;56.08;;
68310;SDS011;55157;51.036;17.058;2023-04-06T03:20:36;110.75;;;57.45;;
68310;SDS011;55157;51.036;17.058;2023-04-06T03:23:02;115.03;;;55.78;;
68310;SDS011;55157;51.036;17.058;2023-04-06T03:25:28;109.97;;;58.08;;
68310;SDS011;55157;51.036;17.058;2023-04-06T03:27:53;114.95;;;58.65;;
68310;SDS011;55157;51.036;17.058;2023-04-06T03:30:18;118.88;;;60.42;;
68310;SDS011;55157;51.036;17.058;2023-04-06T03:32:43;112.80;;;59.05;;
68310;SDS011;55157;51.036;17.058;2023-04-06T03:35:09;108.35;;;56.80;;
68310;SDS011;55157;51.036;17.058;2023-04-06T03:37:34;111.93;;;57.95;;
68310;SDS011;55157;51.036;17.058;2023-04-06T03:40:01;104.05;;;56.72;;
68310;SDS011;55157;51.036;17.058;2023-04-06T03:42:26;114.43;;;57.60;;
68310;SDS011;55157;51.036;17.058;2023-04-06T03:44:51;106.15;;;55.53;;
68310;SDS011;55157;51.036;17.058;2023-04-06T03:47:17;120.13;;;60.67;;
68310;SDS011;55157;51.036;17.058;2023-04-06T03:49:42;120.80;;;59.58;;
68310;SDS011;55157;51.036;17.058;2023-04-06T03:52:07;109.63;;;55.67;;
68310;SDS011;55157;51.036;17.058;2023-04-06T03:54:32;105.40;;;54.47;;
68310;SDS011;55157;51.036;17.058;2023-04-06T03:56:59;102.53;;;55.47;;
68310;SDS011;55157;51.036;17.058;2023-04-06T03:59:24;109.78;;;58.17;;
68310;SDS011;55157;51.036;17.058;2023-04-06T04:01:50;113.72;;;59.53;;
68310;SDS011;55157;51.036;17.058;2023-04-06T04:04:15;103.40;;;57.38;;
68310;SDS011;55157;51.036;17.058;2023-04-06T04:06:40;109.22;;;58.25;;
68310;SDS011;55157;51.036;17.058;2023-04-06T04:09:05;118.72;;;62.42;;
68310;SDS011;55157;51.036;17.058;2023-04-06T04:11:31;104.05;;;58.00;;
68310;SDS011;55157;51.036;17.058;2023-04-06T04:13:57;109.60;;;58.17;;
68310;SDS011;55157;51.036;17.058;2023-04-06T04:16:23;102.55;;;58.20;;
68310;SDS011;55157;51.036;17.058;2023-04-06T04:18:48;100.38;;;55.30;;
68310;SDS011;55157;51.036;17.058;2023-04-06T04:21:13;149.45;;;67.43;;
68310;SDS011;55157;51.036;17.058;2023-04-06T04:23:38;124.60;;;58.83;;
68310;SDS011;55157;51.036;17.058;2023-04-06T04:26:04;174.45;;;65.70;;
68310;SDS011;55157;51.036;17.058;2023-04-06T04:28:29;163.07;;;67.55;;
68310;SDS011;55157;51.036;17.058;2023-04-06T04:30:56;201.90;;;73.68;;
68310;SDS011;55157;51.036;17.058;2023-04-06T04:33:21;168.55;;;68.97;;
68310;SDS011;55157;51.036;17.058;2023-04-06T04:35:46;186.48;;;68.55;;
68310;SDS011;55157;51.036;17.058;2023-04-06T04:38:12;185.43;;;74.28;;
68310;SDS011;55157;51.036;17.058;2023-04-06T04:40:37;186.32;;;73.75;;
68310;SDS011;55157;51.036;17.058;2023-04-06T04:43:02;223.93;;;79.55;;
68310;SDS011;55157;51.036;17.058;2023-04-06T04:45:27;207.43;;;76.28;;
68310;SDS011;55157;51.036;17.058;2023-04-06T04:47:54;275.77;;;84.22;;
68310;SDS011;55157;51.036;17.058;2023-04-06T04:50:19;304.63;;;106.40;;
68310;SDS011;55157;51.036;17.058;2023-04-06T04:52:45;244.45;;;103.35;;
68310;SDS011;55157;51.036;17.058;2023-04-06T04:55:10;275.83;;;114.30;;
68310;SDS011;55157;51.036;17.058;2023-04-06T04:57:35;295.52;;;113.82;;
68310;SDS011;55157;51.036;17.058;2023-04-06T05:00:00;227.55;;;89.25;;
68310;SDS011;55157;51.036;17.058;2023-04-06T05:02:26;245.90;;;85.07;;
68310;SDS011;55157;51.036;17.058;2023-04-06T05:04:52;308.05;;;113.93;;
68310;SDS011;55157;51.036;17.058;2023-04-06T05:07:18;281.40;;;97.43;;
68310;SDS011;55157;51.036;17.058;2023-04-06T05:09:43;304.30;;;100.93;;
68310;SDS011;55157;51.036;17.058;2023-04-06T05:12:08;225.55;;;97.68;;
68310;SDS011;55157;51.036;17.058;2023-04-06T05:14:33;277.27;;;93.47;;
68310;SDS011;55157;51.036;17.058;2023-04-06T05:16:59;365.45;;;101.43;;
68310;SDS011;55157;51.036;17.058;2023-04-06T05:19:24;244.07;;;86.55;;
68310;SDS011;55157;51.036;17.058;2023-04-06T05:21:51;238.43;;;79.55;;
68310;SDS011;55157;51.036;17.058;2023-04-06T05:24:16;274.05;;;71.35;;
68310;SDS011;55157;51.036;17.058;2023-04-06T05:26:41;200.60;;;69.25;;
68310;SDS011;55157;51.036;17.058;2023-04-06T05:29:06;245.30;;;66.35;;
68310;SDS011;55157;51.036;17.058;2023-04-06T05:31:32;257.63;;;66.32;;
68310;SDS011;55157;51.036;17.058;2023-04-06T05:33:57;257.50;;;71.05;;
68310;SDS011;55157;51.036;17.058;2023-04-06T05:36:22;178.35;;;68.32;;
68310;SDS011;55157;51.036;17.058;2023-04-06T05:38:49;161.27;;;70.05;;
68310;SDS011;55157;51.036;17.058;2023-04-06T05:41:14;179.55;;;63.78;;
68310;SDS011;55157;51.036;17.058;2023-04-06T05:43:40;167.82;;;66.30;;
68310;SDS011;55157;51.036;17.058;2023-04-06T05:46:05;157.23;;;58.47;;
68310;SDS011;55157;51.036;17.058;2023-04-06T05:48:30;146.00;;;54.35;;
68310;SDS011;55157;51.036;17.058;2023-04-06T05:50:56;141.15;;;57.40;;
68310;SDS011;55157;51.036;17.058;2023-04-06T05:53:21;135.55;;;55.72;;
68310;SDS011;55157;51.036;17.058;2023-04-06T05:55:48;121.10;;;53.92;;
68310;SDS011;55157;51.036;17.058;2023-04-06T05:58:13;90.18;;;52.72;;
68310;SDS011;55157;51.036;17.058;2023-04-06T06:00:38;95.45;;;53.35;;
68310;SDS011;55157;51.036;17.058;2023-04-06T06:03:04;120.78;;;57.72;;
68310;SDS011;55157;51.036;17.058;2023-04-06T06:05:29;130.32;;;66.88;;
68310;SDS011;55157;51.036;17.058;2023-04-06T06:07:54;131.38;;;65.22;;
68310;SDS011;55157;51.036;17.058;2023-04-06T06:10:20;119.55;;;61.53;;
68310;SDS011;55157;51.036;17.058;2023-04-06T06:12:47;99.93;;;56.72;;
68310;SDS011;55157;51.036;17.058;2023-04-06T06:15:12;95.60;;;53.35;;
68310;SDS011;55157;51.036;17.058;2023-04-06T06:17:39;88.15;;;52.92;;
68310;SDS011;55157;51.036;17.058;2023-04-06T06:20:05;84.13;;;53.45;;
68310;SDS011;55157;51.036;17.058;2023-04-06T06:22:30;87.03;;;51.92;;
68310;SDS011;55157;51.036;17.058;2023-04-06T06:24:55;94.10;;;53.13;;
68310;SDS011;55157;51.036;17.058;2023-04-06T06:27:21;94.35;;;52.33;;
68310;SDS011;55157;51.036;17.058;2023-04-06T06:29:48;95.97;;;51.72;;
68310;SDS011;55157;51.036;17.058;2023-04-06T06:32:13;83.15;;;48.63;;
68310;SDS011;55157;51.036;17.058;2023-04-06T06:34:38;87.78;;;51.28;;
68310;SDS011;55157;51.036;17.058;2023-04-06T06:37:03;75.10;;;47.75;;
68310;SDS011;55157;51.036;17.058;2023-04-06T06:39:29;82.13;;;48.42;;
68310;SDS011;55157;51.036;17.058;2023-04-06T06:41:54;85.05;;;50.40;;
68310;SDS011;55157;51.036;17.058;2023-04-06T06:44:19;87.68;;;46.50;;
68310;SDS011;55157;51.036;17.058;2023-04-06T06:46:46;86.20;;;48.97;;
68310;SDS011;55157;51.036;17.058;2023-04-06T06:49:11;90.40;;;49.47;;
68310;SDS011;55157;51.036;17.058;2023-04-06T06:51:37;85.53;;;49.72;;
68310;SDS011;55157;51.036;17.058;2023-04-06T06:54:02;80.25;;;47.58;;
68310;SDS011;55157;51.036;17.058;2023-04-06T06:56:28;79.10;;;44.83;;
68310;SDS011;55157;51.036;17.058;2023-04-06T06:58:53;71.68;;;42.55;;
68310;SDS011;55157;51.036;17.058;2023-04-06T07:01:19;75.57;;;42.22;;
68310;SDS011;55157;51.036;17.058;2023-04-06T07:03:45;65.35;;;39.85;;
68310;SDS011;55157;51.036;17.058;2023-04-06T07:06:11;66.85;;;40.05;;
68310;SDS011;55157;51.036;17.058;2023-04-06T07:08:36;67.25;;;40.40;;
68310;SDS011;55157;51.036;17.058;2023-04-06T07:11:01;68.90;;;41.50;;
68310;SDS011;55157;51.036;17.058;2023-04-06T07:13:27;67.72;;;38.17;;
68310;SDS011;55157;51.036;17.058;2023-04-06T07:15:52;64.30;;;39.97;;
68310;SDS011;55157;51.036;17.058;2023-04-06T07:18:17;58.88;;;37.63;;
68310;SDS011;55157;51.036;17.058;2023-04-06T07:20:44;68.55;;;37.78;;
68310;SDS011;55157;51.036;17.058;2023-04-06T07:23:10;65.30;;;37.65;;
68310;SDS011;55157;51.036;17.058;2023-04-06T07:25:35;64.80;;;37.42;;
68310;SDS011;55157;51.036;17.058;2023-04-06T07:28:01;60.00;;;35.33;;
68310;SDS011;55157;51.036;17.058;2023-04-06T07:30:26;62.30;;;36.58;;
68310;SDS011;55157;51.036;17.058;2023-04-06T07:32:51;65.13;;;36.72;;
68310;SDS011;55157;51.036;17.058;2023-04-06T07:35:17;59.55;;;34.65;;
68310;SDS011;55157;51.036;17.058;2023-04-06T07:37:44;54.22;;;33.22;;
68310;SDS011;55157;51.036;17.058;2023-04-06T07:40:09;60.67;;;34.20;;
68310;SDS011;55157;51.036;17.058;2023-04-06T07:42:34;62.45;;;34.60;;
68310;SDS011;55157;51.036;17.058;2023-04-06T07:45:00;51.67;;;33.00;;
68310;SDS011;55157;51.036;17.058;2023-04-06T07:47:25;65.10;;;33.75;;
68310;SDS011;55157;51.036;17.058;2023-04-06T07:49:50;53.00;;;30.27;;
68310;SDS011;55157;51.036;17.058;2023-04-06T07:52:16;45.95;;;28.13;;
68310;SDS011;55157;51.036;17.058;2023-04-06T07:54:42;52.28;;;29.08;;
68310;SDS011;55157;51.036;17.058;2023-04-06T07:57:08;49.17;;;29.75;;
68310;SDS011;55157;51.036;17.058;2023-04-06T07:59:33;58.40;;;31.98;;
68310;SDS011;55157;51.036;17.058;2023-04-06T08:01:58;54.38;;;27.10;;
68310;SDS011;55157;51.036;17.058;2023-04-06T08:04:23;58.55;;;28.90;;
68310;SDS011;55157;51.036;17.058;2023-04-06T08:06:49;38.85;;;23.60;;
68310;SDS011;55157;51.036;17.058;2023-04-06T08:09:14;36.83;;;19.90;;
68310;SDS011;55157;51.036;17.058;2023-04-06T08:11:41;26.98;;;15.65;;
68310;SDS011;55157;51.036;17.058;2023-04-06T08:14:06;27.90;;;17.98;;
68310;SDS011;55157;51.036;17.058;2023-04-06T08:16:31;27.33;;;17.10;;
68310;SDS011;55157;51.036;17.058;2023-04-06T08:18:57;40.70;;;18.73;;
68310;SDS011;55157;51.036;17.058;2023-04-06T08:21:22;32.35;;;18.27;;
68310;SDS011;55157;51.036;17.058;2023-04-06T08:23:47;31.38;;;19.13;;
68310;SDS011;55157;51.036;17.058;2023-04-06T08:26:13;31.80;;;18.83;;
68310;SDS011;55157;51.036;17.058;2023-04-06T08:28:39;26.65;;;15.63;;
68310;SDS011;55157;51.036;17.058;2023-04-06T08:31:05;28.35;;;12.77;;
68310;SDS011;55157;51.036;17.058;2023-04-06T08:33:30;25.75;;;13.98;;
68310;SDS011;55157;51.036;17.058;2023-04-06T08:35:55;29.45;;;14.45;;
68310;SDS011;55157;51.036;17.058;2023-04-06T08:38:21;32.22;;;16.13;;
68310;SDS011;55157;51.036;17.058;2023-04-06T08:40:46;30.63;;;15.82;;
68310;SDS011;55157;51.036;17.058;2023-04-06T08:43:13;20.77;;;12.75;;
68310;SDS011;55157;51.036;17.058;2023-04-06T08:45:40;21.55;;;12.07;;
68310;SDS011;55157;51.036;17.058;2023-04-06T08:48:06;28.83;;;14.32;;
68310;SDS011;55157;51.036;17.058;2023-04-06T08:50:32;32.70;;;13.23;;
68310;SDS011;55157;51.036;17.058;2023-04-06T08:52:57;17.95;;;12.13;;
68310;SDS011;55157;51.036;17.058;2023-04-06T08:55:23;24.67;;;11.38;;
68310;SDS011;55157;51.036;17.058;2023-04-06T08:57:48;16.98;;;8.95;;
68310;SDS011;55157;51.036;17.058;2023-04-06T09:00:14;18.88;;;9.48;;
68310;SDS011;55157;51.036;17.058;2023-04-06T09:02:42;21.88;;;10.80;;
68310;SDS011;55157;51.036;17.058;2023-04-06T09:05:08;21.15;;;10.73;;
68310;SDS011;55157;51.036;17.058;2023-04-06T09:07:34;18.50;;;10.93;;
68310;SDS011;55157;51.036;17.058;2023-04-06T09:09:59;16.75;;;9.80;;
68310;SDS011;55157;51.036;17.058;2023-04-06T09:12:24;19.52;;;10.75;;
68310;SDS011;55157;51.036;17.058;2023-04-06T09:14:50;21.35;;;12.02;;
68310;SDS011;55157;51.036;17.058;2023-04-06T09:17:19;17.98;;;10.75;;
68310;SDS011;55157;51.036;17.058;2023-04-06T09:19:46;20.58;;;12.02;;
68310;SDS011;55157;51.036;17.058;2023-04-06T09:22:11;15.80;;;9.98;;
68310;SDS011;55157;51.036;17.058;2023-04-06T09:24:41;21.60;;;11.45;;
68310;SDS011;55157;51.036;17.058;2023-04-06T09:27:06;20.40;;;10.13;;
68310;SDS011;55157;51.036;17.058;2023-04-06T09:29:31;18.67;;;10.60;;
68310;SDS011;55157;51.036;17.058;2023-04-06T09:32:01;14.80;;;9.63;;
68310;SDS011;55157;51.036;17.058;2023-04-06T09:34:27;14.68;;;9.20;;
68310;SDS011;55157;51.036;17.058;2023-04-06T09:36:53;16.05;;;9.07;;
68310;SDS011;55157;51.036;17.058;2023-04-06T09:39:20;16.67;;;8.82;;
68310;SDS011;55157;51.036;17.058;2023-04-06T09:41:48;15.82;;;9.45;;
68310;SDS011;55157;51.036;17.058;2023-04-06T09:44:13;13.40;;;8.23;;
68310;SDS011;55157;51.036;17.058;2023-04-06T09:46:39;18.33;;;9.68;;
68310;SDS011;55157;51.036;17.058;2023-04-06T09:49:05;15.88;;;8.73;;
68310;SDS011;55157;51.036;17.058;2023-04-06T09:51:32;18.75;;;9.85;;
68310;SDS011;55157;51.036;17.058;2023-04-06T09:54:01;18.95;;;9.50;;
68310;SDS011;55157;51.036;17.058;2023-04-06T09:56:27;14.40;;;8.68;;
68310;SDS011;55157;51.036;17.058;2023-04-06T09:58:53;13.30;;;9.50;;
68310;SDS011;55157;51.036;17.058;2023-04-06T10:01:20;16.65;;;9.38;;
68310;SDS011;55157;51.036;17.058;2023-04-06T10:03:47;19.67;;;8.73;;
68310;SDS011;55157;51.036;17.058;2023-04-06T10:06:15;18.10;;;7.75;;
68310;SDS011;55157;51.036;17.058;2023-04-06T10:08:41;17.45;;;9.40;;
68310;SDS011;55157;51.036;17.058;2023-04-06T10:11:09;15.95;;;7.82;;
68310;SDS011;55157;51.036;17.058;2023-04-06T10:13:35;18.60;;;8.63;;
68310;SDS011;55157;51.036;17.058;2023-04-06T10:16:00;11.98;;;7.28;;
68310;SDS011;55157;51.036;17.058;2023-04-06T10:18:25;15.52;;;6.15;;
68310;SDS011;55157;51.036;17.058;2023-04-06T10:20:52;10.65;;;7.10;;
68310;SDS011;55157;51.036;17.058;2023-04-06T10:23:19;13.13;;;9.05;;
68310;SDS011;55157;51.036;17.058;2023-04-06T10:25:51;15.32;;;7.50;;
68310;SDS011;55157;51.036;17.058;2023-04-06T10:28:19;10.30;;;6.55;;
68310;SDS011;55157;51.036;17.058;2023-04-06T10:30:44;10.75;;;6.88;;
68310;SDS011;55157;51.036;17.058;2023-04-06T10:33:13;11.48;;;7.05;;
68310;SDS011;55157;51.036;17.058;2023-04-06T10:35:38;10.85;;;5.93;;
68310;SDS011;55157;51.036;17.058;2023-04-06T10:38:03;14.00;;;7.03;;
68310;SDS011;55157;51.036;17.058;2023-04-06T10:40:29;12.15;;;6.70;;
68310;SDS011;55157;51.036;17.058;2023-04-06T10:42:54;13.20;;;7.20;;
68310;SDS011;55157;51.036;17.058;2023-04-06T10:45:22;12.45;;;7.53;;
68310;SDS011;55157;51.036;17.058;2023-04-06T10:47:48;11.57;;;6.78;;
68310;SDS011;55157;51.036;17.058;2023-04-06T10:50:14;10.38;;;7.00;;
68310;SDS011;55157;51.036;17.058;2023-04-06T10:52:39;13.73;;;8.07;;
68310;SDS011;55157;51.036;17.058;2023-04-06T10:55:05;13.88;;;8.43;;
68310;SDS011;55157;51.036;17.058;2023-04-06T10:57:31;12.05;;;6.65;;
68310;SDS011;55157;51.036;17.058;2023-04-06T10:59:56;15.18;;;7.25;;
68310;SDS011;55157;51.036;17.058;2023-04-06T11:02:23;11.77;;;7.30;;
68310;SDS011;55157;51.036;17.058;2023-04-06T11:04:55;15.07;;;6.85;;
68310;SDS011;55157;51.036;17.058;2023-04-06T11:07:22;8.27;;;5.90;;
68310;SDS011;55157;51.036;17.058;2023-04-06T11:09:49;9.40;;;6.50;;
68310;SDS011;55157;51.036;17.058;2023-04-06T11:12:20;8.15;;;5.93;;
68310;SDS011;55157;51.036;17.058;2023-04-06T11:14:52;12.25;;;6.50;;
68310;SDS011;55157;51.036;17.058;2023-04-06T11:17:17;15.43;;;5.75;;
68310;SDS011;55157;51.036;17.058;2023-04-06T11:19:44;11.52;;;5.63;;
68310;SDS011;55157;51.036;17.058;2023-04-06T11:22:09;12.82;;;5.88;;
68310;SDS011;55157;51.036;17.058;2023-04-06T11:24:34;8.63;;;5.38;;
68310;SDS011;55157;51.036;17.058;2023-04-06T11:27:00;7.60;;;5.47;;
68310;SDS011;55157;51.036;17.058;2023-04-06T11:29:25;13.95;;;5.43;;
68310;SDS011;55157;51.036;17.058;2023-04-06T11:31:51;8.80;;;5.30;;
68310;SDS011;55157;51.036;17.058;2023-04-06T11:34:17;8.48;;;4.93;;
68310;SDS011;55157;51.036;17.058;2023-04-06T11:36:44;12.52;;;4.95;;
68310;SDS011;55157;51.036;17.058;2023-04-06T11:39:10;9.15;;;5.57;;
68310;SDS011;55157;51.036;17.058;2023-04-06T11:41:35;7.82;;;5.57;;
68310;SDS011;55157;51.036;17.058;2023-04-06T11:44:00;12.98;;;6.88;;
68310;SDS011;55157;51.036;17.058;2023-04-06T11:46:27;12.07;;;6.00;;
68310;SDS011;55157;51.036;17.058;2023-04-06T11:48:52;13.13;;;5.72;;
68310;SDS011;55157;51.036;17.058;2023-04-06T15:14:27;10.73;;;6.57;;
68310;SDS011;55157;51.036;17.058;2023-04-06T15:16:52;20.08;;;7.43;;
68310;SDS011;55157;51.036;17.058;2023-04-06T15:19:18;12.73;;;7.85;;
68310;SDS011;55157;51.036;17.058;2023-04-06T15:21:43;19.00;;;6.88;;
68310;SDS011;55157;51.036;17.058;2023-04-06T15:24:08;10.70;;;7.28;;
68310;SDS011;55157;51.036;17.058;2023-04-06T15:26:34;12.55;;;6.53;;
68310;SDS011;55157;51.036;17.058;2023-04-06T15:29:00;9.25;;;6.40;;
68310;SDS011;55157;51.036;17.058;2023-04-06T15:31:26;11.32;;;7.85;;
68310;SDS011;55157;51.036;17.058;2023-04-06T15:33:52;14.18;;;6.43;;
68310;SDS011;55157;51.036;17.058;2023-04-06T15:36:21;11.48;;;6.03;;
68310;SDS011;55157;51.036;17.058;2023-04-06T15:38:47;11.18;;;7.10;;
68310;SDS011;55157;51.036;17.058;2023-04-06T15:41:12;10.40;;;6.93;;
68310;SDS011;55157;51.036;17.058;2023-04-06T15:43:38;17.23;;;7.32;;
68310;SDS011;55157;51.036;17.058;2023-04-06T15:46:03;11.88;;;6.95;;
68310;SDS011;55157;51.036;17.058;2023-04-06T15:48:30;20.08;;;7.32;;
68310;SDS011;55157;51.036;17.058;2023-04-06T15:50:56;14.05;;;6.28;;
68310;SDS011;55157;51.036;17.058;2023-04-06T15:53:21;11.73;;;7.63;;
68310;SDS011;55157;51.036;17.058;2023-04-06T15:55:46;19.17;;;6.82;;
68310;SDS011;55157;51.036;17.058;2023-04-06T15:58:12;12.18;;;7.72;;
68310;SDS011;55157;51.036;17.058;2023-04-06T16:00:37;12.57;;;6.97;;
68310;SDS011;55157;51.036;17.058;2023-04-06T16:03:02;10.25;;;6.70;;
68310;SDS011;55157;51.036;17.058;2023-04-06T16:05:29;18.40;;;6.50;;
68310;SDS011;55157;51.036;17.058;2023-04-06T16:07:54;13.38;;;7.35;;
68310;SDS011;55157;51.036;17.058;2023-04-06T16:10:20;9.43;;;6.70;;
68310;SDS011;55157;51.036;17.058;2023-04-06T16:12:45;13.82;;;7.45;;
68310;SDS011;55157;51.036;17.058;2023-04-06T16:15:10;18.83;;;7.82;;
68310;SDS011;55157;51.036;17.058;2023-04-06T16:17:35;8.85;;;6.70;;
68310;SDS011;55157;51.036;17.058;2023-04-06T16:20:01;9.55;;;7.05;;
68310;SDS011;55157;51.036;17.058;2023-04-06T16:22:28;11.82;;;7.43;;
68310;SDS011;55157;51.036;17.058;2023-04-06T16:24:53;13.13;;;6.82;;
68310;SDS011;55157;51.036;17.058;2023-04-06T16:27:18;13.85;;;7.15;;
68310;SDS011;55157;51.036;17.058;2023-04-06T16:29:43;13.35;;;7.40;;
68310;SDS011;55157;51.036;17.058;2023-04-06T16:32:09;12.73;;;7.28;;
68310;SDS011;55157;51.036;17.058;2023-04-06T16:34:34;10.88;;;6.78;;
68310;SDS011;55157;51.036;17.058;2023-04-06T16:36:59;11.93;;;7.25;;
68310;SDS011;55157;51.036;17.058;2023-04-06T16:39:26;16.05;;;7.32;;
68310;SDS011;55157;51.036;17.058;2023-04-06T16:41:51;17.50;;;8.57;;
68310;SDS011;55157;51.036;17.058;2023-04-06T16:44:16;11.77;;;7.65;;
68310;SDS011;55157;51.036;17.058;2023-04-06T16:46:42;10.50;;;7.72;;
68310;SDS011;55157;51.036;17.058;2023-04-06T16:49:07;10.23;;;6.85;;
68310;SDS011;55157;51.036;17.058;2023-04-06T16:51:32;16.02;;;8.13;;
68310;SDS011;55157;51.036;17.058;2023-04-06T16:53:58;15.50;;;7.22;;
68310;SDS011;55157;51.036;17.058;2023-04-06T16:56:24;12.50;;;7.88;;
68310;SDS011;55157;51.036;17.058;2023-04-06T16:58:50;15.55;;;7.68;;
68310;SDS011;55157;51.036;17.058;2023-04-06T17:01:18;14.02;;;8.38;;
68310;SDS011;55157;51.036;17.058;2023-04-06T17:03:43;16.85;;;9.23;;
68310;SDS011;55157;51.036;17.058;2023-04-06T17:06:08;16.00;;;8.75;;
68310;SDS011;55157;51.036;17.058;2023-04-06T17:08:34;12.88;;;8.02;;
68310;SDS011;55157;51.036;17.058;2023-04-06T17:10:59;17.83;;;7.80;;
68310;SDS011;55157;51.036;17.058;2023-04-06T17:13:26;13.07;;;8.80;;
68310;SDS011;55157;51.036;17.058;2023-04-06T17:15:51;12.75;;;8.40;;
68310;SDS011;55157;51.036;17.058;2023-04-06T17:18:16;12.30;;;8.82;;
68310;SDS011;55157;51.036;17.058;2023-04-06T17:20:41;17.25;;;9.63;;
68310;SDS011;55157;51.036;17.058;2023-04-06T17:23:07;15.68;;;7.70;;